Saint Vincent, Minnesota
Current Conditions -  °F | °C
As of 5:13 PM on Wednesday 26 Nov 2014 (Local Time) from KHCO Reporting Station
Clear Clear  
Wind Chill: -17°   Ceiling: Unl
Heat Index: -6°   Visibility: 10mi
Dew Point: -11°   Wind: 5mph
Humidity: 77%   Direction: 360°N
Pressure: 30.51"   Gusts: NA
Location:  48.97°N, 97.23°W
Report Text: KHCO 262313Z AUTO 36004KT 10SM CLR M21/M24 A3051 RMK AO2
Loading
Personal Weather Stations






























Interactive Weather Map New forecast layout! Learn more

10-Day Weather Forecast

Advertisements
Track Severe Weather on mobile